sensor_id;sensor_type;location;lat;lon;timestamp;P1;durP1;ratioP1;P2;durP2;ratioP2
45476;SDS011;31958;51.756;-2.556;2023-06-24T00:02:00;8.18;;;2.50;;
45476;SDS011;31958;51.756;-2.556;2023-06-24T00:04:26;6.05;;;2.65;;
45476;SDS011;31958;51.756;-2.556;2023-06-24T00:06:51;5.05;;;2.53;;
45476;SDS011;31958;51.756;-2.556;2023-06-24T00:09:17;5.93;;;2.25;;
45476;SDS011;31958;51.756;-2.556;2023-06-24T00:11:43;4.68;;;2.53;;
45476;SDS011;31958;51.756;-2.556;2023-06-24T00:14:08;6.53;;;2.75;;
45476;SDS011;31958;51.756;-2.556;2023-06-24T00:16:33;4.00;;;2.55;;
45476;SDS011;31958;51.756;-2.556;2023-06-24T00:18:59;7.10;;;2.70;;
45476;SDS011;31958;51.756;-2.556;2023-06-24T00:21:25;5.32;;;2.65;;
45476;SDS011;31958;51.756;-2.556;2023-06-24T00:23:55;8.93;;;2.70;;
45476;SDS011;31958;51.756;-2.556;2023-06-24T00:26:21;6.97;;;2.53;;
45476;SDS011;31958;51.756;-2.556;2023-06-24T00:28:46;14.30;;;3.00;;
45476;SDS011;31958;51.756;-2.556;2023-06-24T00:31:12;5.50;;;2.33;;
45476;SDS011;31958;51.756;-2.556;2023-06-24T00:33:37;11.50;;;3.08;;
45476;SDS011;31958;51.756;-2.556;2023-06-24T00:36:02;9.85;;;2.53;;
45476;SDS011;31958;51.756;-2.556;2023-06-24T00:38:28;7.07;;;2.53;;
45476;SDS011;31958;51.756;-2.556;2023-06-24T00:40:57;7.00;;;2.97;;
45476;SDS011;31958;51.756;-2.556;2023-06-24T00:43:23;8.27;;;2.97;;
45476;SDS011;31958;51.756;-2.556;2023-06-24T00:45:48;6.72;;;2.92;;
45476;SDS011;31958;51.756;-2.556;2023-06-24T00:48:14;9.35;;;3.13;;
45476;SDS011;31958;51.756;-2.556;2023-06-24T00:50:39;6.45;;;2.88;;
45476;SDS011;31958;51.756;-2.556;2023-06-24T00:53:07;7.97;;;3.08;;
45476;SDS011;31958;51.756;-2.556;2023-06-24T00:55:32;5.22;;;2.95;;
45476;SDS011;31958;51.756;-2.556;2023-06-24T00:57:58;6.53;;;2.95;;
45476;SDS011;31958;51.756;-2.556;2023-06-24T01:00:24;7.05;;;2.65;;
45476;SDS011;31958;51.756;-2.556;2023-06-24T01:02:51;6.10;;;3.15;;
45476;SDS011;31958;51.756;-2.556;2023-06-24T01:05:17;8.13;;;3.00;;
45476;SDS011;31958;51.756;-2.556;2023-06-24T01:07:42;6.13;;;2.90;;
45476;SDS011;31958;51.756;-2.556;2023-06-24T01:10:08;9.77;;;3.47;;
45476;SDS011;31958;51.756;-2.556;2023-06-24T01:12:39;7.30;;;3.60;;
45476;SDS011;31958;51.756;-2.556;2023-06-24T01:15:08;6.50;;;3.15;;
45476;SDS011;31958;51.756;-2.556;2023-06-24T01:17:35;6.93;;;3.30;;
45476;SDS011;31958;51.756;-2.556;2023-06-24T01:20:04;6.32;;;2.90;;
45476;SDS011;31958;51.756;-2.556;2023-06-24T01:22:57;8.75;;;3.50;;
45476;SDS011;31958;51.756;-2.556;2023-06-24T01:25:44;6.40;;;3.22;;
45476;SDS011;31958;51.756;-2.556;2023-06-24T01:33:34;6.00;;;2.80;;
45476;SDS011;31958;51.756;-2.556;2023-06-24T01:36:05;9.45;;;2.80;;
45476;SDS011;31958;51.756;-2.556;2023-06-24T01:41:31;7.43;;;3.17;;
45476;SDS011;31958;51.756;-2.556;2023-06-24T01:43:59;5.55;;;3.22;;
45476;SDS011;31958;51.756;-2.556;2023-06-24T01:46:25;5.13;;;2.90;;
45476;SDS011;31958;51.756;-2.556;2023-06-24T01:48:54;10.38;;;3.35;;
45476;SDS011;31958;51.756;-2.556;2023-06-24T01:51:21;7.00;;;2.85;;
45476;SDS011;31958;51.756;-2.556;2023-06-24T01:54:10;6.30;;;2.75;;
45476;SDS011;31958;51.756;-2.556;2023-06-24T01:56:38;9.70;;;3.03;;
45476;SDS011;31958;51.756;-2.556;2023-06-24T01:59:04;6.15;;;3.20;;
45476;SDS011;31958;51.756;-2.556;2023-06-24T02:01:31;6.43;;;2.85;;
45476;SDS011;31958;51.756;-2.556;2023-06-24T02:03:57;5.43;;;2.75;;
45476;SDS011;31958;51.756;-2.556;2023-06-24T02:06:24;8.93;;;2.70;;
45476;SDS011;31958;51.756;-2.556;2023-06-24T02:08:51;7.38;;;2.55;;
45476;SDS011;31958;51.756;-2.556;2023-06-24T02:11:18;5.75;;;3.13;;
45476;SDS011;31958;51.756;-2.556;2023-06-24T02:13:44;10.35;;;3.03;;
45476;SDS011;31958;51.756;-2.556;2023-06-24T02:16:09;10.95;;;3.20;;
45476;SDS011;31958;51.756;-2.556;2023-06-24T02:18:36;7.22;;;3.13;;
45476;SDS011;31958;51.756;-2.556;2023-06-24T02:21:03;7.78;;;3.47;;
45476;SDS011;31958;51.756;-2.556;2023-06-24T02:23:29;5.80;;;2.63;;
45476;SDS011;31958;51.756;-2.556;2023-06-24T02:25:55;9.82;;;3.05;;
45476;SDS011;31958;51.756;-2.556;2023-06-24T02:28:20;5.45;;;2.92;;
45476;SDS011;31958;51.756;-2.556;2023-06-24T02:30:46;7.32;;;3.35;;
45476;SDS011;31958;51.756;-2.556;2023-06-24T02:33:12;5.32;;;2.78;;
45476;SDS011;31958;51.756;-2.556;2023-06-24T02:35:38;7.75;;;3.15;;
45476;SDS011;31958;51.756;-2.556;2023-06-24T02:38:03;6.82;;;3.10;;
45476;SDS011;31958;51.756;-2.556;2023-06-24T02:40:29;9.15;;;3.05;;
45476;SDS011;31958;51.756;-2.556;2023-06-24T02:42:54;9.45;;;3.10;;
45476;SDS011;31958;51.756;-2.556;2023-06-24T02:45:20;8.57;;;3.13;;
45476;SDS011;31958;51.756;-2.556;2023-06-24T02:47:45;6.72;;;2.95;;
45476;SDS011;31958;51.756;-2.556;2023-06-24T02:50:12;6.88;;;3.05;;
45476;SDS011;31958;51.756;-2.556;2023-06-24T02:52:38;8.55;;;3.47;;
45476;SDS011;31958;51.756;-2.556;2023-06-24T02:55:04;6.68;;;3.10;;
45476;SDS011;31958;51.756;-2.556;2023-06-24T02:57:30;6.63;;;3.30;;
45476;SDS011;31958;51.756;-2.556;2023-06-24T02:59:57;6.88;;;3.15;;
45476;SDS011;31958;51.756;-2.556;2023-06-24T03:02:22;4.68;;;2.78;;
45476;SDS011;31958;51.756;-2.556;2023-06-24T03:04:49;7.18;;;3.53;;
45476;SDS011;31958;51.756;-2.556;2023-06-24T03:07:15;4.47;;;2.83;;
45476;SDS011;31958;51.756;-2.556;2023-06-24T03:09:45;5.72;;;3.35;;
45476;SDS011;31958;51.756;-2.556;2023-06-24T03:12:11;6.03;;;3.13;;
45476;SDS011;31958;51.756;-2.556;2023-06-24T03:14:36;3.90;;;2.85;;
45476;SDS011;31958;51.756;-2.556;2023-06-24T03:17:02;8.77;;;3.20;;
45476;SDS011;31958;51.756;-2.556;2023-06-24T03:19:27;7.07;;;3.40;;
45476;SDS011;31958;51.756;-2.556;2023-06-24T03:21:52;9.30;;;3.30;;
45476;SDS011;31958;51.756;-2.556;2023-06-24T03:24:18;5.30;;;2.90;;
45476;SDS011;31958;51.756;-2.556;2023-06-24T03:26:43;7.90;;;2.92;;
45476;SDS011;31958;51.756;-2.556;2023-06-24T03:29:08;8.18;;;3.03;;
45476;SDS011;31958;51.756;-2.556;2023-06-24T03:31:34;5.95;;;2.67;;
45476;SDS011;31958;51.756;-2.556;2023-06-24T03:33:59;6.25;;;3.03;;
45476;SDS011;31958;51.756;-2.556;2023-06-24T03:36:25;5.55;;;2.83;;
45476;SDS011;31958;51.756;-2.556;2023-06-24T03:38:50;9.57;;;3.10;;
45476;SDS011;31958;51.756;-2.556;2023-06-24T03:41:16;7.13;;;3.05;;
45476;SDS011;31958;51.756;-2.556;2023-06-24T03:43:41;6.43;;;3.28;;
45476;SDS011;31958;51.756;-2.556;2023-06-24T03:46:07;14.52;;;3.95;;
45476;SDS011;31958;51.756;-2.556;2023-06-24T03:48:32;8.70;;;3.47;;
45476;SDS011;31958;51.756;-2.556;2023-06-24T03:50:58;9.07;;;3.60;;
45476;SDS011;31958;51.756;-2.556;2023-06-24T03:53:23;7.97;;;3.42;;
45476;SDS011;31958;51.756;-2.556;2023-06-24T03:55:48;8.50;;;3.88;;
45476;SDS011;31958;51.756;-2.556;2023-06-24T03:58:14;6.50;;;3.45;;
45476;SDS011;31958;51.756;-2.556;2023-06-24T04:00:41;7.65;;;3.47;;
45476;SDS011;31958;51.756;-2.556;2023-06-24T04:03:09;12.95;;;3.90;;
45476;SDS011;31958;51.756;-2.556;2023-06-24T04:05:34;7.63;;;3.60;;
45476;SDS011;31958;51.756;-2.556;2023-06-24T04:07:59;6.05;;;3.85;;
45476;SDS011;31958;51.756;-2.556;2023-06-24T04:10:25;6.95;;;3.92;;
45476;SDS011;31958;51.756;-2.556;2023-06-24T04:12:50;6.55;;;3.80;;
45476;SDS011;31958;51.756;-2.556;2023-06-24T04:15:16;7.68;;;3.42;;
45476;SDS011;31958;51.756;-2.556;2023-06-24T04:17:41;9.13;;;3.45;;
45476;SDS011;31958;51.756;-2.556;2023-06-24T04:20:07;5.85;;;3.63;;
45476;SDS011;31958;51.756;-2.556;2023-06-24T04:22:36;6.80;;;3.50;;
45476;SDS011;31958;51.756;-2.556;2023-06-24T04:25:02;9.52;;;3.95;;
45476;SDS011;31958;51.756;-2.556;2023-06-24T04:27:27;5.20;;;3.13;;
45476;SDS011;31958;51.756;-2.556;2023-06-24T04:29:53;8.55;;;3.50;;
45476;SDS011;31958;51.756;-2.556;2023-06-24T04:32:18;9.23;;;3.92;;
45476;SDS011;31958;51.756;-2.556;2023-06-24T04:34:43;6.32;;;3.60;;
45476;SDS011;31958;51.756;-2.556;2023-06-24T04:37:09;7.78;;;3.42;;
45476;SDS011;31958;51.756;-2.556;2023-06-24T04:39:34;7.90;;;3.53;;
45476;SDS011;31958;51.756;-2.556;2023-06-24T04:41:59;7.07;;;3.58;;
45476;SDS011;31958;51.756;-2.556;2023-06-24T04:44:25;10.13;;;4.15;;
45476;SDS011;31958;51.756;-2.556;2023-06-24T04:46:50;6.88;;;3.80;;
45476;SDS011;31958;51.756;-2.556;2023-06-24T04:49:17;10.35;;;3.70;;
45476;SDS011;31958;51.756;-2.556;2023-06-24T04:51:43;10.32;;;3.85;;
45476;SDS011;31958;51.756;-2.556;2023-06-24T04:54:08;5.43;;;3.80;;
45476;SDS011;31958;51.756;-2.556;2023-06-24T04:56:33;6.15;;;3.55;;
45476;SDS011;31958;51.756;-2.556;2023-06-24T04:58:59;7.43;;;3.47;;
45476;SDS011;31958;51.756;-2.556;2023-06-24T05:01:25;8.10;;;3.63;;
45476;SDS011;31958;51.756;-2.556;2023-06-24T05:03:50;11.25;;;3.60;;
45476;SDS011;31958;51.756;-2.556;2023-06-24T05:06:16;7.85;;;3.72;;
45476;SDS011;31958;51.756;-2.556;2023-06-24T05:08:41;5.78;;;3.55;;
45476;SDS011;31958;51.756;-2.556;2023-06-24T05:11:06;8.48;;;3.30;;
45476;SDS011;31958;51.756;-2.556;2023-06-24T05:13:32;9.48;;;3.97;;
45476;SDS011;31958;51.756;-2.556;2023-06-24T05:15:57;6.25;;;3.35;;
45476;SDS011;31958;51.756;-2.556;2023-06-24T05:18:22;6.43;;;3.47;;
45476;SDS011;31958;51.756;-2.556;2023-06-24T05:20:48;5.50;;;3.03;;
45476;SDS011;31958;51.756;-2.556;2023-06-24T05:23:13;7.30;;;3.30;;
45476;SDS011;31958;51.756;-2.556;2023-06-24T05:25:39;8.32;;;3.53;;
45476;SDS011;31958;51.756;-2.556;2023-06-24T05:28:04;5.82;;;3.58;;
45476;SDS011;31958;51.756;-2.556;2023-06-24T05:30:29;6.53;;;3.38;;
45476;SDS011;31958;51.756;-2.556;2023-06-24T05:32:55;8.65;;;2.97;;
45476;SDS011;31958;51.756;-2.556;2023-06-24T05:35:20;6.30;;;3.25;;
45476;SDS011;31958;51.756;-2.556;2023-06-24T05:37:45;6.90;;;2.72;;
45476;SDS011;31958;51.756;-2.556;2023-06-24T05:40:11;7.40;;;3.58;;
45476;SDS011;31958;51.756;-2.556;2023-06-24T05:42:37;6.25;;;3.30;;
45476;SDS011;31958;51.756;-2.556;2023-06-24T05:45:03;4.47;;;2.85;;
45476;SDS011;31958;51.756;-2.556;2023-06-24T05:47:29;8.05;;;3.70;;
45476;SDS011;31958;51.756;-2.556;2023-06-24T05:49:54;5.03;;;3.08;;
45476;SDS011;31958;51.756;-2.556;2023-06-24T05:52:19;6.75;;;3.45;;
45476;SDS011;31958;51.756;-2.556;2023-06-24T05:54:45;8.68;;;3.20;;
45476;SDS011;31958;51.756;-2.556;2023-06-24T05:57:10;5.13;;;3.30;;
45476;SDS011;31958;51.756;-2.556;2023-06-24T05:59:36;6.15;;;2.97;;
45476;SDS011;31958;51.756;-2.556;2023-06-24T06:02:01;7.53;;;3.53;;
45476;SDS011;31958;51.756;-2.556;2023-06-24T06:04:27;9.93;;;3.00;;
45476;SDS011;31958;51.756;-2.556;2023-06-24T06:06:52;8.18;;;3.03;;
45476;SDS011;31958;51.756;-2.556;2023-06-24T06:09:18;6.10;;;3.03;;
45476;SDS011;31958;51.756;-2.556;2023-06-24T06:11:43;5.30;;;2.90;;
45476;SDS011;31958;51.756;-2.556;2023-06-24T06:14:08;6.05;;;3.28;;
45476;SDS011;31958;51.756;-2.556;2023-06-24T06:16:34;7.07;;;3.10;;
45476;SDS011;31958;51.756;-2.556;2023-06-24T06:18:59;6.40;;;2.97;;
45476;SDS011;31958;51.756;-2.556;2023-06-24T06:21:24;5.50;;;2.97;;
45476;SDS011;31958;51.756;-2.556;2023-06-24T06:23:50;9.20;;;2.90;;
45476;SDS011;31958;51.756;-2.556;2023-06-24T06:26:15;10.90;;;3.75;;
45476;SDS011;31958;51.756;-2.556;2023-06-24T06:28:41;7.97;;;3.10;;
45476;SDS011;31958;51.756;-2.556;2023-06-24T06:31:06;8.10;;;3.85;;
45476;SDS011;31958;51.756;-2.556;2023-06-24T06:33:31;6.57;;;2.60;;
45476;SDS011;31958;51.756;-2.556;2023-06-24T06:35:56;5.38;;;3.13;;
45476;SDS011;31958;51.756;-2.556;2023-06-24T06:38:22;5.35;;;2.97;;
45476;SDS011;31958;51.756;-2.556;2023-06-24T06:40:47;6.60;;;3.25;;
45476;SDS011;31958;51.756;-2.556;2023-06-24T06:43:12;5.63;;;2.72;;
45476;SDS011;31958;51.756;-2.556;2023-06-24T06:45:38;7.10;;;3.00;;
45476;SDS011;31958;51.756;-2.556;2023-06-24T06:48:03;4.55;;;2.50;;
45476;SDS011;31958;51.756;-2.556;2023-06-24T06:50:32;10.13;;;3.45;;
45476;SDS011;31958;51.756;-2.556;2023-06-24T06:52:58;8.05;;;2.80;;
45476;SDS011;31958;51.756;-2.556;2023-06-24T06:55:23;7.68;;;2.90;;
45476;SDS011;31958;51.756;-2.556;2023-06-24T06:57:49;5.55;;;2.63;;
45476;SDS011;31958;51.756;-2.556;2023-06-24T07:00:14;6.40;;;2.90;;
45476;SDS011;31958;51.756;-2.556;2023-06-24T07:02:40;5.63;;;2.70;;
45476;SDS011;31958;51.756;-2.556;2023-06-24T07:05:05;6.05;;;3.40;;
45476;SDS011;31958;51.756;-2.556;2023-06-24T07:07:31;6.38;;;2.83;;
45476;SDS011;31958;51.756;-2.556;2023-06-24T07:09:57;6.82;;;3.05;;
45476;SDS011;31958;51.756;-2.556;2023-06-24T07:12:23;5.50;;;2.40;;
45476;SDS011;31958;51.756;-2.556;2023-06-24T07:14:48;5.38;;;3.28;;
45476;SDS011;31958;51.756;-2.556;2023-06-24T07:17:15;7.25;;;3.00;;
45476;SDS011;31958;51.756;-2.556;2023-06-24T07:19:40;7.78;;;2.95;;
45476;SDS011;31958;51.756;-2.556;2023-06-24T07:22:05;5.65;;;2.72;;
45476;SDS011;31958;51.756;-2.556;2023-06-24T07:24:31;5.82;;;2.95;;
45476;SDS011;31958;51.756;-2.556;2023-06-24T07:26:56;6.55;;;2.97;;
45476;SDS011;31958;51.756;-2.556;2023-06-24T07:29:21;8.90;;;2.80;;
45476;SDS011;31958;51.756;-2.556;2023-06-24T07:31:47;7.40;;;2.70;;
45476;SDS011;31958;51.756;-2.556;2023-06-24T07:34:12;5.82;;;2.70;;
45476;SDS011;31958;51.756;-2.556;2023-06-24T07:36:37;7.13;;;2.75;;
45476;SDS011;31958;51.756;-2.556;2023-06-24T07:39:02;5.93;;;2.80;;
45476;SDS011;31958;51.756;-2.556;2023-06-24T07:41:28;7.97;;;3.08;;
45476;SDS011;31958;51.756;-2.556;2023-06-24T07:43:53;11.27;;;3.20;;
45476;SDS011;31958;51.756;-2.556;2023-06-24T07:46:20;9.60;;;2.72;;
45476;SDS011;31958;51.756;-2.556;2023-06-24T07:48:45;5.88;;;2.40;;
45476;SDS011;31958;51.756;-2.556;2023-06-24T07:51:10;8.98;;;2.70;;
45476;SDS011;31958;51.756;-2.556;2023-06-24T07:53:36;5.97;;;2.60;;
45476;SDS011;31958;51.756;-2.556;2023-06-24T07:56:01;9.20;;;2.80;;
45476;SDS011;31958;51.756;-2.556;2023-06-24T07:58:26;9.30;;;3.03;;
45476;SDS011;31958;51.756;-2.556;2023-06-24T08:00:52;6.60;;;2.65;;
45476;SDS011;31958;51.756;-2.556;2023-06-24T08:03:17;6.28;;;2.83;;
45476;SDS011;31958;51.756;-2.556;2023-06-24T08:05:42;6.22;;;2.97;;
45476;SDS011;31958;51.756;-2.556;2023-06-24T08:08:08;6.85;;;2.45;;
45476;SDS011;31958;51.756;-2.556;2023-06-24T08:10:35;6.90;;;2.70;;
45476;SDS011;31958;51.756;-2.556;2023-06-24T08:13:00;5.25;;;2.88;;
45476;SDS011;31958;51.756;-2.556;2023-06-24T08:15:25;6.68;;;2.83;;
45476;SDS011;31958;51.756;-2.556;2023-06-24T08:17:51;5.15;;;2.70;;
45476;SDS011;31958;51.756;-2.556;2023-06-24T08:20:17;7.60;;;2.60;;
45476;SDS011;31958;51.756;-2.556;2023-06-24T08:22:42;4.30;;;2.83;;
45476;SDS011;31958;51.756;-2.556;2023-06-24T08:25:08;10.00;;;2.95;;
45476;SDS011;31958;51.756;-2.556;2023-06-24T08:27:33;10.80;;;2.75;;
45476;SDS011;31958;51.756;-2.556;2023-06-24T08:29:59;6.60;;;2.95;;
45476;SDS011;31958;51.756;-2.556;2023-06-24T08:32:24;7.97;;;2.85;;
45476;SDS011;31958;51.756;-2.556;2023-06-24T08:34:50;8.63;;;2.50;;
45476;SDS011;31958;51.756;-2.556;2023-06-24T08:37:15;11.27;;;3.30;;
45476;SDS011;31958;51.756;-2.556;2023-06-24T08:39:41;5.40;;;2.55;;
45476;SDS011;31958;51.756;-2.556;2023-06-24T08:42:06;6.47;;;2.50;;
45476;SDS011;31958;51.756;-2.556;2023-06-24T08:44:31;7.43;;;2.88;;
45476;SDS011;31958;51.756;-2.556;2023-06-24T08:46:57;4.72;;;2.40;;
45476;SDS011;31958;51.756;-2.556;2023-06-24T08:51:53;4.60;;;2.42;;
45476;SDS011;31958;51.756;-2.556;2023-06-24T08:54:20;9.57;;;2.78;;
45476;SDS011;31958;51.756;-2.556;2023-06-24T08:56:46;6.32;;;2.45;;
45476;SDS011;31958;51.756;-2.556;2023-06-24T08:59:11;5.47;;;2.90;;
45476;SDS011;31958;51.756;-2.556;2023-06-24T09:01:37;5.15;;;2.25;;
45476;SDS011;31958;51.756;-2.556;2023-06-24T09:04:02;6.20;;;2.58;;
45476;SDS011;31958;51.756;-2.556;2023-06-24T09:06:29;5.88;;;2.53;;
45476;SDS011;31958;51.756;-2.556;2023-06-24T09:08:55;4.47;;;2.08;;
45476;SDS011;31958;51.756;-2.556;2023-06-24T09:11:27;5.85;;;2.00;;
45476;SDS011;31958;51.756;-2.556;2023-06-24T09:13:56;4.78;;;2.20;;
45476;SDS011;31958;51.756;-2.556;2023-06-24T09:16:22;5.38;;;2.38;;
45476;SDS011;31958;51.756;-2.556;2023-06-24T09:18:48;3.65;;;1.88;;
45476;SDS011;31958;51.756;-2.556;2023-06-24T09:21:20;4.35;;;2.10;;
45476;SDS011;31958;51.756;-2.556;2023-06-24T09:23:53;4.75;;;2.05;;
45476;SDS011;31958;51.756;-2.556;2023-06-24T09:26:22;5.00;;;2.00;;
45476;SDS011;31958;51.756;-2.556;2023-06-24T09:28:48;3.80;;;1.88;;
45476;SDS011;31958;51.756;-2.556;2023-06-24T09:31:14;4.75;;;1.98;;
45476;SDS011;31958;51.756;-2.556;2023-06-24T09:33:40;5.95;;;2.30;;
45476;SDS011;31958;51.756;-2.556;2023-06-24T09:36:05;3.80;;;2.22;;
45476;SDS011;31958;51.756;-2.556;2023-06-24T09:38:34;4.32;;;2.15;;
45476;SDS011;31958;51.756;-2.556;2023-06-24T09:41:07;6.53;;;2.08;;
45476;SDS011;31958;51.756;-2.556;2023-06-24T09:43:34;5.82;;;2.47;;
45476;SDS011;31958;51.756;-2.556;2023-06-24T09:46:01;4.30;;;2.30;;
45476;SDS011;31958;51.756;-2.556;2023-06-24T09:48:27;7.00;;;2.45;;
45476;SDS011;31958;51.756;-2.556;2023-06-24T09:50:53;4.38;;;2.47;;
45476;SDS011;31958;51.756;-2.556;2023-06-24T09:53:19;5.68;;;2.42;;
45476;SDS011;31958;51.756;-2.556;2023-06-24T09:55:45;5.57;;;2.10;;
45476;SDS011;31958;51.756;-2.556;2023-06-24T09:58:12;4.05;;;2.30;;
45476;SDS011;31958;51.756;-2.556;2023-06-24T10:00:38;4.75;;;2.10;;
45476;SDS011;31958;51.756;-2.556;2023-06-24T10:03:03;7.90;;;2.63;;
45476;SDS011;31958;51.756;-2.556;2023-06-24T10:05:29;3.45;;;2.20;;
45476;SDS011;31958;51.756;-2.556;2023-06-24T10:07:54;4.95;;;2.33;;
45476;SDS011;31958;51.756;-2.556;2023-06-24T10:10:20;4.22;;;2.08;;
45476;SDS011;31958;51.756;-2.556;2023-06-24T10:12:45;5.40;;;2.08;;
45476;SDS011;31958;51.756;-2.556;2023-06-24T10:15:10;5.82;;;2.33;;
45476;SDS011;31958;51.756;-2.556;2023-06-24T10:17:36;3.22;;;1.90;;
45476;SDS011;31958;51.756;-2.556;2023-06-24T10:20:05;5.15;;;2.35;;
45476;SDS011;31958;51.756;-2.556;2023-06-24T10:22:31;4.05;;;1.95;;
45476;SDS011;31958;51.756;-2.556;2023-06-24T10:24:59;7.80;;;2.42;;
45476;SDS011;31958;51.756;-2.556;2023-06-24T10:27:25;4.97;;;2.10;;
45476;SDS011;31958;51.756;-2.556;2023-06-24T10:29:52;6.10;;;2.47;;
45476;SDS011;31958;51.756;-2.556;2023-06-24T10:32:19;5.78;;;2.15;;
45476;SDS011;31958;51.756;-2.556;2023-06-24T10:34:45;8.15;;;2.22;;
45476;SDS011;31958;51.756;-2.556;2023-06-24T10:37:22;5.97;;;2.40;;
45476;SDS011;31958;51.756;-2.556;2023-06-24T10:39:59;4.32;;;2.22;;
45476;SDS011;31958;51.756;-2.556;2023-06-24T10:44:51;5.47;;;2.33;;
45476;SDS011;31958;51.756;-2.556;2023-06-24T10:47:17;4.10;;;2.38;;
45476;SDS011;31958;51.756;-2.556;2023-06-24T10:49:42;6.03;;;2.42;;
45476;SDS011;31958;51.756;-2.556;2023-06-24T10:52:08;4.25;;;1.90;;
45476;SDS011;31958;51.756;-2.556;2023-06-24T10:54:34;4.95;;;2.00;;
45476;SDS011;31958;51.756;-2.556;2023-06-24T10:57:03;7.10;;;2.00;;
45476;SDS011;31958;51.756;-2.556;2023-06-24T10:59:51;5.15;;;1.77;;
45476;SDS011;31958;51.756;-2.556;2023-06-24T11:02:16;5.57;;;2.30;;
45476;SDS011;31958;51.756;-2.556;2023-06-24T11:07:21;7.72;;;2.10;;
45476;SDS011;31958;51.756;-2.556;2023-06-24T11:09:54;6.75;;;2.22;;
45476;SDS011;31958;51.756;-2.556;2023-06-24T11:12:25;4.90;;;2.30;;
45476;SDS011;31958;51.756;-2.556;2023-06-24T11:14:55;5.95;;;1.98;;
45476;SDS011;31958;51.756;-2.556;2023-06-24T11:17:21;4.97;;;2.00;;
45476;SDS011;31958;51.756;-2.556;2023-06-24T11:19:47;5.03;;;2.20;;
45476;SDS011;31958;51.756;-2.556;2023-06-24T11:22:12;4.97;;;2.28;;
45476;SDS011;31958;51.756;-2.556;2023-06-24T11:24:37;5.97;;;2.05;;
45476;SDS011;31958;51.756;-2.556;2023-06-24T11:27:04;6.75;;;2.60;;
45476;SDS011;31958;51.756;-2.556;2023-06-24T11:29:30;7.75;;;2.33;;
45476;SDS011;31958;51.756;-2.556;2023-06-24T11:31:56;7.18;;;2.53;;
45476;SDS011;31958;51.756;-2.556;2023-06-24T11:34:22;7.32;;;2.50;;
45476;SDS011;31958;51.756;-2.556;2023-06-24T11:36:47;7.70;;;2.78;;
45476;SDS011;31958;51.756;-2.556;2023-06-24T11:39:59;6.25;;;2.50;;
45476;SDS011;31958;51.756;-2.556;2023-06-24T11:42:09;4.03;;;2.30;;
45476;SDS011;31958;51.756;-2.556;2023-06-24T11:44:34;4.53;;;2.30;;
45476;SDS011;31958;51.756;-2.556;2023-06-24T11:47:07;5.43;;;2.17;;
45476;SDS011;31958;51.756;-2.556;2023-06-24T11:49:52;7.40;;;2.30;;
45476;SDS011;31958;51.756;-2.556;2023-06-24T11:52:27;5.40;;;2.28;;
45476;SDS011;31958;51.756;-2.556;2023-06-24T11:54:57;5.22;;;2.33;;
45476;SDS011;31958;51.756;-2.556;2023-06-24T11:57:27;4.78;;;2.33;;
45476;SDS011;31958;51.756;-2.556;2023-06-24T12:00:21;5.15;;;2.03;;
45476;SDS011;31958;51.756;-2.556;2023-06-24T12:02:55;5.20;;;1.92;;
45476;SDS011;31958;51.756;-2.556;2023-06-24T12:05:29;5.47;;;2.20;;
45476;SDS011;31958;51.756;-2.556;2023-06-24T12:07:59;5.10;;;1.75;;
45476;SDS011;31958;51.756;-2.556;2023-06-24T12:10:26;6.32;;;2.10;;
45476;SDS011;31958;51.756;-2.556;2023-06-24T12:12:52;3.55;;;1.83;;
45476;SDS011;31958;51.756;-2.556;2023-06-24T12:15:17;3.30;;;1.90;;
45476;SDS011;31958;51.756;-2.556;2023-06-24T12:17:42;5.47;;;2.10;;
45476;SDS011;31958;51.756;-2.556;2023-06-24T12:20:08;4.00;;;1.80;;
45476;SDS011;31958;51.756;-2.556;2023-06-24T12:22:34;2.63;;;1.60;;
45476;SDS011;31958;51.756;-2.556;2023-06-24T12:25:00;6.10;;;2.10;;
45476;SDS011;31958;51.756;-2.556;2023-06-24T12:27:25;3.65;;;1.85;;
45476;SDS011;31958;51.756;-2.556;2023-06-24T12:29:50;4.63;;;1.60;;
45476;SDS011;31958;51.756;-2.556;2023-06-24T12:32:16;5.38;;;1.77;;
45476;SDS011;31958;51.756;-2.556;2023-06-24T12:34:41;4.53;;;1.77;;
45476;SDS011;31958;51.756;-2.556;2023-06-24T12:37:06;3.95;;;1.48;;
45476;SDS011;31958;51.756;-2.556;2023-06-24T12:39:32;4.82;;;1.88;;
45476;SDS011;31958;51.756;-2.556;2023-06-24T12:41:57;3.45;;;1.60;;
45476;SDS011;31958;51.756;-2.556;2023-06-24T12:44:22;4.32;;;1.80;;
45476;SDS011;31958;51.756;-2.556;2023-06-24T12:46:48;6.72;;;1.60;;
45476;SDS011;31958;51.756;-2.556;2023-06-24T12:49:13;3.78;;;1.58;;
45476;SDS011;31958;51.756;-2.556;2023-06-24T12:51:38;5.88;;;1.75;;
45476;SDS011;31958;51.756;-2.556;2023-06-24T12:54:04;4.03;;;1.75;;
45476;SDS011;31958;51.756;-2.556;2023-06-24T12:56:29;5.03;;;1.83;;
45476;SDS011;31958;51.756;-2.556;2023-06-24T12:58:54;7.53;;;1.88;;
45476;SDS011;31958;51.756;-2.556;2023-06-24T13:01:20;4.75;;;1.50;;
45476;SDS011;31958;51.756;-2.556;2023-06-24T13:03:45;2.92;;;1.40;;
45476;SDS011;31958;51.756;-2.556;2023-06-24T13:06:10;2.97;;;1.20;;
45476;SDS011;31958;51.756;-2.556;2023-06-24T13:08:36;2.85;;;1.40;;
45476;SDS011;31958;51.756;-2.556;2023-06-24T13:11:01;4.85;;;1.65;;
45476;SDS011;31958;51.756;-2.556;2023-06-24T13:13:26;2.30;;;1.38;;
45476;SDS011;31958;51.756;-2.556;2023-06-24T13:15:52;3.45;;;1.75;;
45476;SDS011;31958;51.756;-2.556;2023-06-24T13:18:17;2.47;;;1.30;;
45476;SDS011;31958;51.756;-2.556;2023-06-24T13:20:44;2.53;;;1.50;;
45476;SDS011;31958;51.756;-2.556;2023-06-24T13:23:10;4.10;;;1.70;;
45476;SDS011;31958;51.756;-2.556;2023-06-24T13:25:36;3.80;;;1.55;;
45476;SDS011;31958;51.756;-2.556;2023-06-24T13:28:02;4.25;;;1.60;;
45476;SDS011;31958;51.756;-2.556;2023-06-24T13:30:27;3.63;;;1.67;;
45476;SDS011;31958;51.756;-2.556;2023-06-24T13:32:53;4.40;;;1.67;;
45476;SDS011;31958;51.756;-2.556;2023-06-24T13:35:18;3.60;;;1.70;;
45476;SDS011;31958;51.756;-2.556;2023-06-24T13:37:43;2.50;;;1.50;;
45476;SDS011;31958;51.756;-2.556;2023-06-24T13:40:09;2.92;;;1.50;;
45476;SDS011;31958;51.756;-2.556;2023-06-24T13:42:35;5.22;;;1.80;;
45476;SDS011;31958;51.756;-2.556;2023-06-24T13:45:01;3.58;;;1.70;;
45476;SDS011;31958;51.756;-2.556;2023-06-24T13:47:26;4.68;;;1.52;;
45476;SDS011;31958;51.756;-2.556;2023-06-24T13:49:52;4.38;;;1.80;;
45476;SDS011;31958;51.756;-2.556;2023-06-24T13:52:17;5.25;;;1.80;;
45476;SDS011;31958;51.756;-2.556;2023-06-24T13:54:42;3.50;;;1.48;;
45476;SDS011;31958;51.756;-2.556;2023-06-24T13:57:08;3.63;;;1.52;;
45476;SDS011;31958;51.756;-2.556;2023-06-24T13:59:33;5.60;;;1.77;;
45476;SDS011;31958;51.756;-2.556;2023-06-24T14:01:58;2.97;;;1.65;;
45476;SDS011;31958;51.756;-2.556;2023-06-24T14:04:24;3.92;;;1.80;;
45476;SDS011;31958;51.756;-2.556;2023-06-24T14:06:49;6.20;;;1.75;;
45476;SDS011;31958;51.756;-2.556;2023-06-24T14:09:15;3.30;;;1.50;;
45476;SDS011;31958;51.756;-2.556;2023-06-24T14:11:40;4.55;;;1.67;;
45476;SDS011;31958;51.756;-2.556;2023-06-24T14:14:06;3.25;;;1.58;;
45476;SDS011;31958;51.756;-2.556;2023-06-24T14:16:31;2.75;;;1.60;;
45476;SDS011;31958;51.756;-2.556;2023-06-24T14:18:56;3.90;;;1.58;;
45476;SDS011;31958;51.756;-2.556;2023-06-24T14:21:22;3.85;;;1.85;;
45476;SDS011;31958;51.756;-2.556;2023-06-24T14:23:47;2.40;;;1.70;;
45476;SDS011;31958;51.756;-2.556;2023-06-24T14:26:13;3.30;;;1.67;;
45476;SDS011;31958;51.756;-2.556;2023-06-24T14:28:38;4.53;;;1.92;;
45476;SDS011;31958;51.756;-2.556;2023-06-24T14:31:03;3.53;;;1.90;;
45476;SDS011;31958;51.756;-2.556;2023-06-24T14:33:29;3.83;;;1.80;;
45476;SDS011;31958;51.756;-2.556;2023-06-24T14:35:54;4.03;;;1.92;;
45476;SDS011;31958;51.756;-2.556;2023-06-24T14:38:20;3.20;;;1.70;;
45476;SDS011;31958;51.756;-2.556;2023-06-24T14:40:45;3.72;;;1.73;;
45476;SDS011;31958;51.756;-2.556;2023-06-24T14:43:11;5.35;;;2.13;;
45476;SDS011;31958;51.756;-2.556;2023-06-24T14:45:37;3.35;;;2.10;;